Last 7 Days

Abernathy 3

Hourly Data | America/Los_Angeles
as of 6/4/20 7:37 AM PDT
Date & Time Temp (°F) RH (%) Dew Pt (°F) Wind Spd (mph) Wind Dir (°) Wind Gust (mph) Latest Rain (In) Daily Rain (In) Daily Min Temp (°F) Daily Max Temp (°F)
6/4/20 - 0700 56.7 81 51.0 0.7 NNW | 330 3.4 0.00 0.00 53.9 66.9
6/4/20 - 0600 54.8 81 49.0 1.5 NNE | 17 4.8 0.00 0.00 53.9 66.9
6/4/20 - 0500 54.3 79 48.0 1.2 NW | 305 3.8 0.00 0.00 53.9 66.9
6/4/20 - 0400 56.0 73 47.6 0.8 WNW | 298 3.1 0.00 0.00 55.4 66.9
6/4/20 - 0300 58.1 69 48.0 0.8 NNE | 33 3.1 0.00 0.00 56.5 66.9
6/4/20 - 0200 62.3 64 49.9 0.9 NNW | 335 3.1 0.00 0.00 58.9 66.9
6/4/20 - 0100 66.0 59 51.3 1.9 SW | 231 4.8 0.00 0.00 57.6 100.0
6/4/20 - 0000 67.4 52 49.0 1.1 SSW | 204 3.4 0.00 0.00 57.6 100.0
6/3/20 - 2300 70.6 46 48.9 1.3 W | 274 4.1 0.00 0.00 57.6 100.0
6/3/20 - 2200 79.6 38 51.7 4.6 SW | 232 12.5 0.00 0.00 57.6 100.0
6/3/20 - 2100 84.1 31 50.4 7.2 SW | 226 11.1 0.00 0.00 57.6 100.0
6/3/20 - 2000 90.1 22 46.0 5.5 WSW | 249 10.5 0.00 0.00 57.6 100.0
6/3/20 - 1900 94.8 18 44.5 6.4 SW | 235 12.1 0.00 0.00 57.6 100.0
6/3/20 - 1800 95.8 22 50.4 9.9 WSW | 239 17.5 0.00 0.00 57.6 100.0
6/3/20 - 1700 97.2 23 53.1 10.1 WSW | 241 16.5 0.00 0.00 57.6 100.0
6/3/20 - 1600 99.2 16 44.5 8.3 SW | 222 16.2 0.00 0.00 57.6 100.0
6/3/20 - 1500 98.9 19 48.9 6.8 SSW | 201 12.8 0.00 0.00 57.6 99.7
6/3/20 - 1400 96.5 24 53.4 3.7 E | 95 9.5 0.00 0.00 57.6 98.4
6/3/20 - 1300 93.4 28 54.9 2.3 SSE | 158 6.4 0.00 0.00 57.6 95.6
6/3/20 - 1200 90.6 30 54.5 3.4 S | 186 10.5 0.00 0.00 57.6 91.6
6/3/20 - 1100 87.6 32 54.3 4.3 S | 180 9.5 0.00 0.00 57.6 89.6
6/3/20 - 1000 84.3 37 55.5 1.8 SSE | 150 5.4 0.00 0.00 57.6 86.4
6/3/20 - 0900 78.2 47 56.6 0.7 W | 261 3.8 0.00 0.00 57.6 81.2
6/3/20 - 0800 72.6 58 57.1 0.6 SW | 236 3.1 0.00 0.00 57.6 75.6
6/3/20 - 0700 60.2 80 53.9 0.7 WNW | 286 3.1 0.00 0.00 57.6 65.6
6/3/20 - 0600 58.4 82 52.8 1.6 N | 3 3.4 0.00 0.00 57.6 65.3
6/3/20 - 0500 60.0 76 52.5 0.9 SW | 232 3.8 0.00 0.00 59.0 65.3
6/3/20 - 0400 63.6 69 53.2 1.1 WSW | 243 3.8 0.00 0.00 60.9 65.3
6/3/20 - 0300 62.3 70 52.4 1.5 WSW | 247 3.4 0.00 0.00 61.4 63.6
6/3/20 - 0200 63.3 67 52.0 1.3 WSW | 247 3.4 0.00 0.00 62.8 63.6
6/3/20 - 0100 64.4 65 52.5 1.5 W | 281 3.4 0.00 0.00 57.3 95.2
6/3/20 - 0000 65.7 62 52.4 0.9 WSW | 256 2.7 0.00 0.00 57.3 95.2
6/2/20 - 2300 69.8 54 52.2 0.9 NW | 319 2.7 0.00 0.00 57.3 95.2
6/2/20 - 2200 76.1 42 51.1 1.5 WSW | 258 5.1 0.00 0.00 57.3 95.2
6/2/20 - 2100 81.7 33 49.8 3.9 WSW | 255 10.5 0.00 0.00 57.3 95.2
6/2/20 - 2000 86.1 29 50.0 6.4 WSW | 249 11.5 0.00 0.00 57.3 95.2
6/2/20 - 1900 90.2 26 50.8 8.8 SW | 235 16.8 0.00 0.00 57.3 95.2
6/2/20 - 1800 92.1 27 53.6 9.7 SW | 236 15.8 0.00 0.00 57.3 95.2
6/2/20 - 1700 93.5 26 53.5 10.0 SW | 229 17.5 0.00 0.00 57.3 95.2
6/2/20 - 1600 94.5 26 54.2 6.5 SSW | 211 14.5 0.00 0.00 57.3 95.2
6/2/20 - 1500 93.7 27 54.5 4.6 SSE | 148 12.1 0.00 0.00 57.3 94.8
6/2/20 - 1400 91.6 28 53.9 4.7 SSE | 164 11.1 0.00 0.00 57.3 92.5
6/2/20 - 1300 89.3 31 55.0 4.5 SSE | 165 11.1 0.00 0.00 57.3 90.4
6/2/20 - 1200 87.6 32 54.5 3.5 SSE | 164 8.4 0.00 0.00 57.3 89.2
6/2/20 - 1100 84.6 34 53.4 3.7 S | 183 7.8 0.00 0.00 57.3 86.4
6/2/20 - 1000 79.3 41 53.1 2.8 SSE | 164 7.4 0.00 0.00 57.3 83.0
6/2/20 - 0900 72.9 53 54.5 2.4 SSW | 196 5.4 0.00 0.00 57.3 75.8
6/2/20 - 0800 67.9 65 55.8 1.7 S | 182 4.8 0.00 0.00 57.3 70.5
6/2/20 - 0700 59.8 82 54.3 1.1 SSW | 213 3.4 0.00 0.00 57.3 64.0
6/2/20 - 0600 58.0 85 53.6 0.9 SW | 224 4.1 0.00 0.00 57.4 61.7
6/2/20 - 0500 58.4 82 53.1 0.7 SW | 219 2.7 0.00 0.00 57.6 61.7
6/2/20 - 0400 58.3 83 53.3 1.8 SW | 234 4.1 0.00 0.00 57.6 61.7
6/2/20 - 0300 60.5 79 53.9 1.6 WSW | 240 4.1 0.00 0.00 59.5 61.7
6/2/20 - 0200 60.7 75 52.8 2.9 WSW | 244 4.4 0.00 0.00 60.1 61.7
6/2/20 - 0100 62.1 72 52.8 2.0 W | 262 3.8 0.00 0.00 57.6 85.3
6/2/20 - 0000 63.6 64 51.2 1.8 WSW | 244 4.8 0.00 0.00 57.6 85.3
6/1/20 - 2300 65.6 57 49.8 0.8 WSW | 248 3.1 0.00 0.00 57.6 85.3
6/1/20 - 2200 70.0 48 49.3 3.0 WSW | 257 7.8 0.00 0.00 57.6 85.3
6/1/20 - 2100 72.0 46 50.3 4.1 WSW | 258 8.4 0.00 0.00 57.6 85.3
6/1/20 - 2000 75.6 47 54.2 7.0 SSW | 213 12.8 0.00 0.00 57.6 85.3
6/1/20 - 1900 79.2 43 54.8 9.1 SW | 220 13.8 0.00 0.00 57.6 85.3
6/1/20 - 1800 81.6 40 55.1 10.6 SW | 226 16.5 0.00 0.00 57.6 85.3
6/1/20 - 1700 83.8 34 52.4 9.9 SW | 224 15.2 0.00 0.00 57.6 85.3
6/1/20 - 1600 84.2 33 51.6 8.5 SW | 214 14.8 0.00 0.00 57.6 84.8
6/1/20 - 1500 82.7 35 52.5 8.8 SSW | 205 14.5 0.00 0.00 57.6 83.9
6/1/20 - 1400 80.7 38 52.9 9.2 SSW | 204 14.8 0.00 0.00 57.6 82.0
6/1/20 - 1300 78.6 40 52.4 8.3 SSW | 209 15.2 0.00 0.00 57.6 80.3
6/1/20 - 1200 75.6 45 52.9 6.5 SW | 226 13.8 0.00 0.00 57.6 77.4
6/1/20 - 1100 71.2 55 54.3 7.5 SW | 222 12.5 0.00 0.00 57.6 73.7
6/1/20 - 1000 66.6 64 54.0 7.0 SW | 232 13.8 0.00 0.00 57.6 68.9
6/1/20 - 0900 62.2 73 53.4 6.8 SW | 234 14.2 0.00 0.00 57.6 65.2
6/1/20 - 0800 59.4 78 52.7 7.2 SSW | 212 11.8 0.00 0.00 57.6 59.8
6/1/20 - 0700 58.4 77 51.4 6.0 SW | 231 11.1 0.00 0.00 57.6 59.8
6/1/20 - 0600 57.9 76 50.5 6.6 SW | 216 12.5 0.00 0.00 57.6 59.8
6/1/20 - 0500 57.8 78 51.2 6.6 SSW | 210 12.1 0.00 0.00 57.6 59.8
6/1/20 - 0400 57.9 78 51.0 7.0 SSW | 205 11.8 0.00 0.00 57.6 59.8
6/1/20 - 0300 59.0 73 50.5 7.5 SSW | 210 12.8 0.00 0.00 58.2 59.8
6/1/20 - 0200 58.9 75 51.0 8.0 SW | 219 13.5 0.00 0.00 58.7 59.4
6/1/20 - 0100 59.0 75 51.1 6.9 SSW | 199 10.8 0.00 0.00 56.0 76.2
6/1/20 - 0000 60.6 70 50.9 5.0 SSW | 195 9.1 0.00 0.00 56.0 76.2
5/31/20 - 2300 61.0 69 50.8 2.4 SW | 219 8.4 0.00 0.00 56.0 76.2
5/31/20 - 2200 62.1 67 51.1 3.7 WSW | 243 9.5 0.00 0.00 56.0 76.2
5/31/20 - 2100 64.6 61 51.1 5.4 WSW | 240 11.5 0.00 0.00 56.0 76.2
5/31/20 - 2000 67.5 58 52.1 8.7 SW | 234 16.5 0.00 0.00 56.0 76.2
5/31/20 - 1900 70.7 54 53.4 9.3 WSW | 238 16.5 0.00 0.00 56.0 76.2
5/31/20 - 1800 72.8 52 54.0 9.5 SW | 236 15.8 0.00 0.00 56.0 76.2
5/31/20 - 1700 74.1 49 53.9 9.8 SW | 231 15.5 0.00 0.00 56.0 76.2
5/31/20 - 1600 74.7 48 53.8 9.3 SW | 228 14.5 0.00 0.00 56.0 76.2
5/31/20 - 1500 73.4 51 54.0 9.7 SW | 230 15.2 0.00 0.00 56.0 74.6
5/31/20 - 1400 73.7 49 53.5 9.1 SW | 229 15.5 0.00 0.00 56.0 74.6
5/31/20 - 1300 73.9 48 53.1 9.6 SSW | 209 15.2 0.00 0.00 56.0 74.6
5/31/20 - 1200 72.6 51 53.6 8.7 SW | 214 15.2 0.00 0.00 56.0 74.2
5/31/20 - 1100 70.0 57 54.1 5.2 WSW | 256 11.1 0.00 0.00 56.0 71.7
5/31/20 - 1000 66.1 64 53.6 6.4 WSW | 252 11.5 0.00 0.00 56.0 68.0
5/31/20 - 0900 63.2 72 54.1 7.5 W | 264 13.2 0.00 0.00 56.0 65.0
5/31/20 - 0800 60.7 79 54.2 5.2 WSW | 250 11.5 0.00 0.00 56.0 61.6
5/31/20 - 0700 57.7 86 53.6 3.2 SW | 220 6.4 0.00 0.00 56.0 59.4
5/31/20 - 0600 56.9 87 53.0 2.5 SW | 232 5.4 0.00 0.00 56.0 59.4
5/31/20 - 0500 57.5 85 53.2 3.6 SW | 231 6.8 0.00 0.00 57.0 59.4
5/31/20 - 0400 59.0 82 53.6 5.9 WSW | 242 11.1 0.00 0.00 58.2 59.4
5/31/20 - 0300 59.3 82 53.9 6.8 SW | 217 11.1 0.00 0.00 58.9 59.4
5/31/20 - 0200 59.2 83 54.0 6.3 SW | 216 10.1 0.00 0.00 58.9 59.4
5/31/20 - 0100 58.8 83 53.6 4.7 SW | 223 11.8 0.00 0.05 58.4 75.6
5/31/20 - 0000 60.2 79 53.6 5.6 SW | 229 12.1 0.00 0.05 59.4 75.6
5/30/20 - 2300 61.9 75 54.0 6.2 SW | 222 10.1 0.00 0.05 60.8 75.6
5/30/20 - 2200 63.1 74 54.7 8.6 SW | 216 15.8 0.00 0.05 60.8 75.6
5/30/20 - 2100 63.8 73 54.9 9.9 SW | 226 17.2 0.00 0.05 60.8 75.6
5/30/20 - 2000 67.3 62 53.9 9.2 SW | 232 16.2 0.00 0.05 60.8 75.6
5/30/20 - 1900 69.4 58 54.0 10.5 SW | 235 17.8 0.00 0.05 60.8 75.6
5/30/20 - 1800 70.0 61 55.9 10.4 SW | 228 17.5 0.00 0.05 60.8 75.6
5/30/20 - 1700 70.4 62 56.6 11.8 SW | 235 18.5 0.00 0.05 60.8 75.6
5/30/20 - 1600 73.5 51 53.9 10.1 SSW | 201 18.2 0.00 0.05 60.8 75.6
5/30/20 - 1500 74.0 46 52.1 5.9 S | 171 13.2 0.00 0.05 60.8 75.6
5/30/20 - 1400 74.1 45 51.6 4.2 SE | 133 9.1 0.00 0.05 60.8 75.3
5/30/20 - 1300 74.3 47 52.7 4.3 ESE | 102 9.8 0.00 0.05 60.8 75.3
5/30/20 - 1200 72.9 50 53.3 3.3 SE | 143 10.5 0.00 0.05 60.8 74.6
5/30/20 - 1100 69.7 58 54.4 3.7 ESE | 120 13.8 0.00 0.05 60.8 72.6
5/30/20 - 1000 65.5 75 57.2 2.3 SSE | 150 7.1 0.00 0.05 60.8 66.8
5/30/20 - 0900 62.2 82 56.5 3.0 SSW | 210 8.1 0.05 0.05 60.8 63.7
5/30/20 - 0800 63.0 74 54.5 1.4 SSW | 213 4.4 0.00 0.00 60.8 63.6
5/30/20 - 0700 61.5 77 54.1 2.7 WSW | 256 6.4 0.00 0.00 60.8 62.2
5/30/20 - 0600 61.0 75 53.2 3.9 W | 263 8.8 0.00 0.00 60.8 61.9
5/30/20 - 0500 61.4 75 53.5 4.6 WSW | 255 9.5 0.00 0.00 61.0 61.9
5/30/20 - 0400 61.7 76 53.9 5.5 WSW | 245 10.5 0.00 0.00 61.1 61.9
5/30/20 - 0300 61.3 78 54.5 6.4 WSW | 248 13.8 0.00 0.00 61.1 61.5
5/30/20 - 0200 61.4 76 53.9 8.2 WSW | 244 17.2 0.00 0.00 61.2 61.5
5/30/20 - 0100 61.2 75 53.1 8.8 WSW | 244 16.2 0.00 0.00 56.5 74.4
5/30/20 - 0000 61.2 74 52.9 10.0 WSW | 248 19.5 0.00 0.00 56.5 74.4
5/29/20 - 2300 61.4 74 53.1 11.4 SW | 236 17.8 0.00 0.00 56.5 74.4
5/29/20 - 2200 61.9 74 53.4 11.0 SW | 231 20.5 0.00 0.00 56.5 74.4
5/29/20 - 2100 63.2 70 53.3 12.3 WSW | 243 24.6 0.00 0.00 56.5 74.4
5/29/20 - 2000 66.4 65 54.1 11.7 WSW | 239 22.2 0.00 0.00 56.5 74.4
5/29/20 - 1900 66.9 66 55.2 13.2 SW | 229 22.9 0.00 0.00 56.5 74.4
5/29/20 - 1800 68.9 60 54.6 15.5 SW | 230 25.9 0.00 0.00 56.5 74.4
5/29/20 - 1700 71.2 56 54.5 16.2 SW | 235 25.9 0.00 0.00 56.5 74.4
5/29/20 - 1600 72.8 53 54.6 16.1 SW | 226 24.9 0.00 0.00 56.5 74.4
5/29/20 - 1500 73.0 53 54.9 15.4 SW | 227 23.2 0.00 0.00 56.5 74.4
5/29/20 - 1400 71.4 55 54.6 16.7 SW | 221 24.9 0.00 0.00 56.5 73.2
5/29/20 - 1300 70.6 58 54.9 15.6 SW | 215 24.9 0.00 0.00 56.5 73.2
5/29/20 - 1200 71.3 56 54.6 12.5 SW | 218 21.5 0.00 0.00 56.5 73.2
5/29/20 - 1100 68.5 59 53.6 12.5 SW | 221 20.5 0.00 0.00 56.5 72.6
5/29/20 - 1000 65.8 62 52.6 10.8 SW | 226 18.5 0.00 0.00 56.5 67.2
5/29/20 - 0900 60.9 73 52.1 11.0 SW | 236 18.2 0.00 0.00 56.5 64.3
5/29/20 - 0800 60.9 73 52.3 9.6 SW | 218 17.5 0.00 0.00 56.5 63.2
5/29/20 - 0700 59.3 77 52.0 9.2 SW | 231 19.2 0.00 0.00 56.5 61.9
5/29/20 - 0600 57.7 80 51.7 8.1 SSW | 205 14.5 0.00 0.00 56.5 59.9
5/29/20 - 0500 58.1 81 52.3 8.2 SW | 230 13.8 0.00 0.00 56.5 59.9
5/29/20 - 0400 57.3 84 52.3 9.9 SW | 215 17.2 0.00 0.00 56.5 58.9
5/29/20 - 0300 58.6 78 51.8 5.8 SW | 218 11.8 0.00 0.00 56.9 58.9
5/29/20 - 0200 57.2 82 51.9 9.6 SSW | 208 16.5 0.00 0.00 56.9 57.9
5/29/20 - 0100 57.5 85 53.1 11.8 SSW | 209 17.8 0.00 0.00 57.2 95.2
5/29/20 - 0000 58.1 85 53.6 10.3 SW | 225 20.9 0.00 0.00 57.9 95.2
5/28/20 - 2300 59.3 82 53.8 12.5 SW | 234 21.9 0.00 0.00 58.0 95.2
5/28/20 - 2200 64.2 69 53.8 14.7 SW | 217 23.9 0.00 0.00 58.6 95.2
5/28/20 - 2100 69.7 57 54.0 11.4 SW | 216 16.8 0.00 0.00 58.6 95.2
5/28/20 - 2000 75.8 49 55.2 10.7 SW | 215 15.8 0.00 0.00 58.6 95.2
5/28/20 - 1900 83.4 40 56.6 9.4 SW | 218 15.2 0.00 0.00 58.6 95.2
5/28/20 - 1800 89.0 34 57.3 8.6 SW | 235 13.8 0.00 0.00 58.6 95.2
5/28/20 - 1700 92.8 30 56.2 8.8 WSW | 251 15.2 0.00 0.00 58.6 95.2
5/28/20 - 1600 94.0 21 48.3 9.1 WSW | 254 15.2 0.00 0.00 58.6 95.2
5/28/20 - 1500 94.6 19 45.5 9.2 SW | 234 14.8 0.00 0.00 58.6 95.2
5/28/20 - 1400 91.7 23 48.2 9.1 SSW | 201 15.2 0.00 0.00 58.6 94.6
5/28/20 - 1300 86.2 35 55.4 8.8 S | 184 13.2 0.00 0.00 58.6 88.6
5/28/20 - 1200 81.0 41 55.2 8.3 S | 184 12.1 0.00 0.00 58.6 84.3
5/28/20 - 1100 75.7 48 54.8 8.6 S | 189 12.5 0.00 0.00 58.6 79.3
5/28/20 - 1000 71.5 53 53.6 8.9 SSW | 203 13.8 0.00 0.00 58.6 75.1
5/28/20 - 0900 67.2 61 53.5 8.5 SSW | 193 14.5 0.00 0.00 58.6 68.4
5/28/20 - 0800 62.9 71 53.2 7.2 SSW | 196 11.5 0.00 0.00 58.6 65.7
Max 99.2 87 57.3 16.7 - 25.9 0.05 0.05 62.8 100.0
Avg 70.4 58 52.8 6.6 - 12.1 0.00 - - -
Min 54.3 16 44.5 0.6 - 2.7 0.00 0.00 53.9 57.9
Total - - - - - - 0.05 - - -
Tip: Bookmark this page for easy future reference